sensor_id;sensor_type;location;lat;lon;timestamp;temperature;humidity
53645;DHT22;39547;45.554;12.068;2022-10-31T00:00:49;14.80;86.00
53645;DHT22;39547;45.554;12.068;2022-10-31T00:06:50;14.80;86.10
53645;DHT22;39547;45.554;12.068;2022-10-31T00:12:52;14.70;86.00
53645;DHT22;39547;45.554;12.068;2022-10-31T00:18:59;14.70;86.10
53645;DHT22;39547;45.554;12.068;2022-10-31T00:25:00;14.70;86.20
53645;DHT22;39547;45.554;12.068;2022-10-31T00:31:04;14.60;86.20
53645;DHT22;39547;45.554;12.068;2022-10-31T00:37:06;14.60;86.30
53645;DHT22;39547;45.554;12.068;2022-10-31T00:43:10;14.60;86.30
53645;DHT22;39547;45.554;12.068;2022-10-31T00:49:11;14.60;86.30
53645;DHT22;39547;45.554;12.068;2022-10-31T00:55:13;14.50;86.30
53645;DHT22;39547;45.554;12.068;2022-10-31T01:01:14;14.50;86.40
53645;DHT22;39547;45.554;12.068;2022-10-31T01:07:16;14.50;86.40
53645;DHT22;39547;45.554;12.068;2022-10-31T01:13:19;14.50;86.40
53645;DHT22;39547;45.554;12.068;2022-10-31T01:19:20;14.40;86.40
53645;DHT22;39547;45.554;12.068;2022-10-31T01:25:22;14.30;86.40
53645;DHT22;39547;45.554;12.068;2022-10-31T01:31:26;14.30;86.40
53645;DHT22;39547;45.554;12.068;2022-10-31T01:37:30;14.30;86.40
53645;DHT22;39547;45.554;12.068;2022-10-31T01:49:52;14.20;86.50
53645;DHT22;39547;45.554;12.068;2022-10-31T01:55:55;14.20;86.50
53645;DHT22;39547;45.554;12.068;2022-10-31T02:01:57;14.20;86.50
53645;DHT22;39547;45.554;12.068;2022-10-31T02:08:10;14.10;86.60
53645;DHT22;39547;45.554;12.068;2022-10-31T02:14:14;14.10;86.60
53645;DHT22;39547;45.554;12.068;2022-10-31T02:20:22;14.10;86.60
53645;DHT22;39547;45.554;12.068;2022-10-31T02:33:21;14.00;86.60
53645;DHT22;39547;45.554;12.068;2022-10-31T02:46:11;13.90;86.70
53645;DHT22;39547;45.554;12.068;2022-10-31T02:52:23;13.90;86.70
53645;DHT22;39547;45.554;12.068;2022-10-31T02:58:28;13.90;86.80
53645;DHT22;39547;45.554;12.068;2022-10-31T03:04:48;13.90;86.70
53645;DHT22;39547;45.554;12.068;2022-10-31T03:10:58;13.80;86.80
53645;DHT22;39547;45.554;12.068;2022-10-31T03:17:04;13.80;86.70
53645;DHT22;39547;45.554;12.068;2022-10-31T03:23:10;13.80;86.80
53645;DHT22;39547;45.554;12.068;2022-10-31T03:29:16;13.70;86.90
53645;DHT22;39547;45.554;12.068;2022-10-31T03:35:20;13.70;86.90
53645;DHT22;39547;45.554;12.068;2022-10-31T03:41:28;13.70;86.90
53645;DHT22;39547;45.554;12.068;2022-10-31T03:47:33;13.70;86.90
53645;DHT22;39547;45.554;12.068;2022-10-31T03:53:41;13.70;86.90
53645;DHT22;39547;45.554;12.068;2022-10-31T03:59:55;13.70;86.90
53645;DHT22;39547;45.554;12.068;2022-10-31T04:06:06;13.60;86.90
53645;DHT22;39547;45.554;12.068;2022-10-31T04:12:12;13.50;86.90
53645;DHT22;39547;45.554;12.068;2022-10-31T04:18:34;13.50;86.90
53645;DHT22;39547;45.554;12.068;2022-10-31T04:24:39;13.40;86.80
53645;DHT22;39547;45.554;12.068;2022-10-31T04:30:40;13.30;86.90
53645;DHT22;39547;45.554;12.068;2022-10-31T04:37:02;13.30;86.90
53645;DHT22;39547;45.554;12.068;2022-10-31T04:43:04;13.30;86.90
53645;DHT22;39547;45.554;12.068;2022-10-31T04:49:05;13.20;87.00
53645;DHT22;39547;45.554;12.068;2022-10-31T04:55:07;13.30;87.00
53645;DHT22;39547;45.554;12.068;2022-10-31T05:01:27;13.30;86.90
53645;DHT22;39547;45.554;12.068;2022-10-31T05:07:30;13.20;87.00
53645;DHT22;39547;45.554;12.068;2022-10-31T05:13:31;13.20;86.90
53645;DHT22;39547;45.554;12.068;2022-10-31T05:19:53;13.20;87.00
53645;DHT22;39547;45.554;12.068;2022-10-31T05:26:14;13.20;87.10
53645;DHT22;39547;45.554;12.068;2022-10-31T05:32:16;13.10;87.10
53645;DHT22;39547;45.554;12.068;2022-10-31T05:38:44;13.10;87.10
53645;DHT22;39547;45.554;12.068;2022-10-31T05:44:51;13.00;87.10
53645;DHT22;39547;45.554;12.068;2022-10-31T05:50:59;13.00;87.10
53645;DHT22;39547;45.554;12.068;2022-10-31T05:57:01;13.00;87.10
53645;DHT22;39547;45.554;12.068;2022-10-31T06:03:05;13.00;87.20
53645;DHT22;39547;45.554;12.068;2022-10-31T06:09:30;13.00;87.10
53645;DHT22;39547;45.554;12.068;2022-10-31T06:15:32;13.00;87.20
53645;DHT22;39547;45.554;12.068;2022-10-31T06:21:33;13.00;87.20
53645;DHT22;39547;45.554;12.068;2022-10-31T06:27:35;13.00;87.10
53645;DHT22;39547;45.554;12.068;2022-10-31T06:33:44;13.00;87.00
53645;DHT22;39547;45.554;12.068;2022-10-31T06:39:46;13.00;86.90
53645;DHT22;39547;45.554;12.068;2022-10-31T06:45:49;13.00;86.80
53645;DHT22;39547;45.554;12.068;2022-10-31T06:51:57;13.00;86.80
53645;DHT22;39547;45.554;12.068;2022-10-31T06:57:59;13.00;86.80
53645;DHT22;39547;45.554;12.068;2022-10-31T07:04:01;13.10;86.90
53645;DHT22;39547;45.554;12.068;2022-10-31T07:10:06;13.20;87.00
53645;DHT22;39547;45.554;12.068;2022-10-31T07:16:24;13.30;87.00
53645;DHT22;39547;45.554;12.068;2022-10-31T07:22:33;13.50;87.00
53645;DHT22;39547;45.554;12.068;2022-10-31T07:28:34;13.70;87.00
53645;DHT22;39547;45.554;12.068;2022-10-31T07:34:36;13.80;86.90
53645;DHT22;39547;45.554;12.068;2022-10-31T07:40:53;13.80;87.00
53645;DHT22;39547;45.554;12.068;2022-10-31T07:46:55;14.00;86.90
53645;DHT22;39547;45.554;12.068;2022-10-31T07:53:15;14.10;87.00
53645;DHT22;39547;45.554;12.068;2022-10-31T07:59:46;14.30;86.90
53645;DHT22;39547;45.554;12.068;2022-10-31T08:05:48;14.60;86.80
53645;DHT22;39547;45.554;12.068;2022-10-31T08:12:12;14.80;86.60
53645;DHT22;39547;45.554;12.068;2022-10-31T08:18:15;15.10;86.50
53645;DHT22;39547;45.554;12.068;2022-10-31T08:24:17;15.30;86.30
53645;DHT22;39547;45.554;12.068;2022-10-31T08:30:20;15.50;86.20
53645;DHT22;39547;45.554;12.068;2022-10-31T08:36:42;15.80;86.10
53645;DHT22;39547;45.554;12.068;2022-10-31T08:43:12;16.00;85.80
53645;DHT22;39547;45.554;12.068;2022-10-31T08:49:13;16.20;85.60
53645;DHT22;39547;45.554;12.068;2022-10-31T08:55:17;16.50;85.40
53645;DHT22;39547;45.554;12.068;2022-10-31T09:01:39;16.70;85.30
53645;DHT22;39547;45.554;12.068;2022-10-31T09:07:41;17.00;85.10
53645;DHT22;39547;45.554;12.068;2022-10-31T09:13:43;17.20;84.70
53645;DHT22;39547;45.554;12.068;2022-10-31T09:20:02;17.40;84.60
53645;DHT22;39547;45.554;12.068;2022-10-31T09:26:08;17.70;84.40
53645;DHT22;39547;45.554;12.068;2022-10-31T09:32:12;17.80;84.20
53645;DHT22;39547;45.554;12.068;2022-10-31T09:38:20;18.00;84.00
53645;DHT22;39547;45.554;12.068;2022-10-31T09:51:00;18.20;83.60
53645;DHT22;39547;45.554;12.068;2022-10-31T09:57:05;18.20;83.70
53645;DHT22;39547;45.554;12.068;2022-10-31T10:03:24;18.20;83.20
53645;DHT22;39547;45.554;12.068;2022-10-31T10:09:29;18.40;83.20
53645;DHT22;39547;45.554;12.068;2022-10-31T10:28:22;19.20;81.60
53645;DHT22;39547;45.554;12.068;2022-10-31T10:34:36;19.30;80.80
53645;DHT22;39547;45.554;12.068;2022-10-31T10:40:41;19.50;78.80
53645;DHT22;39547;45.554;12.068;2022-10-31T10:46:54;19.60;79.00
53645;DHT22;39547;45.554;12.068;2022-10-31T10:53:34;19.70;78.40
53645;DHT22;39547;45.554;12.068;2022-10-31T10:59:37;19.80;78.70
53645;DHT22;39547;45.554;12.068;2022-10-31T11:11:49;20.10;78.70
53645;DHT22;39547;45.554;12.068;2022-10-31T11:17:52;20.20;78.70
53645;DHT22;39547;45.554;12.068;2022-10-31T11:30:13;20.60;77.60
53645;DHT22;39547;45.554;12.068;2022-10-31T11:36:24;20.80;77.20
53645;DHT22;39547;45.554;12.068;2022-10-31T11:42:28;21.00;77.00
53645;DHT22;39547;45.554;12.068;2022-10-31T11:48:31;21.20;76.60
53645;DHT22;39547;45.554;12.068;2022-10-31T12:00:52;21.50;75.30
53645;DHT22;39547;45.554;12.068;2022-10-31T12:06:54;21.70;75.00
53645;DHT22;39547;45.554;12.068;2022-10-31T12:13:06;21.80;74.20
53645;DHT22;39547;45.554;12.068;2022-10-31T12:25:42;22.20;72.90
53645;DHT22;39547;45.554;12.068;2022-10-31T12:50:58;22.50;72.40
53645;DHT22;39547;45.554;12.068;2022-10-31T12:57:22;22.30;72.10
53645;DHT22;39547;45.554;12.068;2022-10-31T13:03:36;22.30;71.60
53645;DHT22;39547;45.554;12.068;2022-10-31T13:09:50;22.30;71.70
53645;DHT22;39547;45.554;12.068;2022-10-31T13:15:57;22.40;72.10
53645;DHT22;39547;45.554;12.068;2022-10-31T13:22:02;22.60;71.00
53645;DHT22;39547;45.554;12.068;2022-10-31T13:28:19;22.50;70.00
53645;DHT22;39547;45.554;12.068;2022-10-31T13:34:34;22.50;70.30
53645;DHT22;39547;45.554;12.068;2022-10-31T13:41:01;22.50;70.60
53645;DHT22;39547;45.554;12.068;2022-10-31T13:47:01;22.30;71.10
53645;DHT22;39547;45.554;12.068;2022-10-31T13:59:22;21.90;72.20
53645;DHT22;39547;45.554;12.068;2022-10-31T14:05:31;21.80;72.30
53645;DHT22;39547;45.554;12.068;2022-10-31T14:11:33;21.70;72.70
53645;DHT22;39547;45.554;12.068;2022-10-31T14:17:49;21.60;72.90
53645;DHT22;39547;45.554;12.068;2022-10-31T14:23:52;21.50;73.00
53645;DHT22;39547;45.554;12.068;2022-10-31T14:29:54;21.40;73.10
53645;DHT22;39547;45.554;12.068;2022-10-31T14:36:57;21.30;73.00
53645;DHT22;39547;45.554;12.068;2022-10-31T14:55:33;20.90;73.70
53645;DHT22;39547;45.554;12.068;2022-10-31T15:01:36;20.80;73.90
53645;DHT22;39547;45.554;12.068;2022-10-31T15:07:52;20.70;74.20
53645;DHT22;39547;45.554;12.068;2022-10-31T15:13:56;20.50;74.30
53645;DHT22;39547;45.554;12.068;2022-10-31T15:19:58;20.30;74.60
53645;DHT22;39547;45.554;12.068;2022-10-31T15:26:00;20.20;74.90
53645;DHT22;39547;45.554;12.068;2022-10-31T15:32:21;20.00;75.10
53645;DHT22;39547;45.554;12.068;2022-10-31T15:38:24;19.80;75.30
53645;DHT22;39547;45.554;12.068;2022-10-31T15:44:35;19.70;75.60
53645;DHT22;39547;45.554;12.068;2022-10-31T15:50:41;19.50;75.80
53645;DHT22;39547;45.554;12.068;2022-10-31T15:56:46;19.30;76.00
53645;DHT22;39547;45.554;12.068;2022-10-31T16:02:47;19.20;76.30
53645;DHT22;39547;45.554;12.068;2022-10-31T16:08:49;19.00;76.60
53645;DHT22;39547;45.554;12.068;2022-10-31T16:14:53;18.80;76.80
53645;DHT22;39547;45.554;12.068;2022-10-31T16:20:55;18.70;77.10
53645;DHT22;39547;45.554;12.068;2022-10-31T16:27:03;18.60;77.30
53645;DHT22;39547;45.554;12.068;2022-10-31T16:33:27;18.50;77.50
53645;DHT22;39547;45.554;12.068;2022-10-31T16:39:29;18.30;77.70
53645;DHT22;39547;45.554;12.068;2022-10-31T16:45:31;18.20;78.00
53645;DHT22;39547;45.554;12.068;2022-10-31T16:51:33;18.20;78.20
53645;DHT22;39547;45.554;12.068;2022-10-31T16:57:35;18.10;78.40
53645;DHT22;39547;45.554;12.068;2022-10-31T17:03:36;18.00;78.60
53645;DHT22;39547;45.554;12.068;2022-10-31T17:09:38;17.90;78.90
53645;DHT22;39547;45.554;12.068;2022-10-31T17:15:42;17.80;79.10
53645;DHT22;39547;45.554;12.068;2022-10-31T17:21:45;17.80;79.30
53645;DHT22;39547;45.554;12.068;2022-10-31T17:27:47;17.70;79.50
53645;DHT22;39547;45.554;12.068;2022-10-31T17:33:49;17.60;79.70
53645;DHT22;39547;45.554;12.068;2022-10-31T17:39:50;17.50;79.90
53645;DHT22;39547;45.554;12.068;2022-10-31T17:45:52;17.40;80.10
53645;DHT22;39547;45.554;12.068;2022-10-31T17:51:53;17.30;80.30
53645;DHT22;39547;45.554;12.068;2022-10-31T17:57:55;17.30;80.60
53645;DHT22;39547;45.554;12.068;2022-10-31T18:03:56;17.20;80.80
53645;DHT22;39547;45.554;12.068;2022-10-31T18:09:58;17.10;81.00
53645;DHT22;39547;45.554;12.068;2022-10-31T18:16:00;17.00;81.20
53645;DHT22;39547;45.554;12.068;2022-10-31T18:22:01;17.00;81.40
53645;DHT22;39547;45.554;12.068;2022-10-31T18:28:06;16.80;81.60
53645;DHT22;39547;45.554;12.068;2022-10-31T18:34:07;16.80;81.70
53645;DHT22;39547;45.554;12.068;2022-10-31T18:40:09;16.70;81.90
53645;DHT22;39547;45.554;12.068;2022-10-31T18:46:15;16.70;82.00
53645;DHT22;39547;45.554;12.068;2022-10-31T18:52:17;16.60;82.20
53645;DHT22;39547;45.554;12.068;2022-10-31T18:58:19;16.50;82.30
53645;DHT22;39547;45.554;12.068;2022-10-31T19:04:20;16.50;82.50
53645;DHT22;39547;45.554;12.068;2022-10-31T19:10:22;16.40;82.60
53645;DHT22;39547;45.554;12.068;2022-10-31T19:16:23;16.30;82.70
53645;DHT22;39547;45.554;12.068;2022-10-31T19:22:25;16.30;82.90
53645;DHT22;39547;45.554;12.068;2022-10-31T19:28:32;16.20;83.00
53645;DHT22;39547;45.554;12.068;2022-10-31T19:34:33;16.20;83.20
53645;DHT22;39547;45.554;12.068;2022-10-31T19:40:35;16.10;83.30
53645;DHT22;39547;45.554;12.068;2022-10-31T19:46:37;16.10;83.40
53645;DHT22;39547;45.554;12.068;2022-10-31T19:52:38;16.00;83.50
53645;DHT22;39547;45.554;12.068;2022-10-31T19:58:40;15.90;83.60
53645;DHT22;39547;45.554;12.068;2022-10-31T20:04:42;15.80;83.70
53645;DHT22;39547;45.554;12.068;2022-10-31T20:11:00;15.70;83.80
53645;DHT22;39547;45.554;12.068;2022-10-31T20:17:05;15.70;84.00
53645;DHT22;39547;45.554;12.068;2022-10-31T20:23:07;15.60;84.30
53645;DHT22;39547;45.554;12.068;2022-10-31T20:29:12;15.60;84.30
53645;DHT22;39547;45.554;12.068;2022-10-31T20:35:16;15.60;84.40
53645;DHT22;39547;45.554;12.068;2022-10-31T20:41:18;15.60;84.40
53645;DHT22;39547;45.554;12.068;2022-10-31T20:47:20;15.60;84.50
53645;DHT22;39547;45.554;12.068;2022-10-31T20:53:21;15.60;84.50
53645;DHT22;39547;45.554;12.068;2022-10-31T20:59:23;15.60;84.50
53645;DHT22;39547;45.554;12.068;2022-10-31T21:05:24;15.60;84.60
53645;DHT22;39547;45.554;12.068;2022-10-31T21:11:26;15.50;84.70
53645;DHT22;39547;45.554;12.068;2022-10-31T21:17:28;15.40;84.80
53645;DHT22;39547;45.554;12.068;2022-10-31T21:23:30;15.40;84.90
53645;DHT22;39547;45.554;12.068;2022-10-31T21:29:31;15.40;84.90
53645;DHT22;39547;45.554;12.068;2022-10-31T21:35:33;15.30;84.90
53645;DHT22;39547;45.554;12.068;2022-10-31T21:41:34;15.30;85.00
53645;DHT22;39547;45.554;12.068;2022-10-31T21:47:36;15.20;85.00
53645;DHT22;39547;45.554;12.068;2022-10-31T21:53:37;15.20;85.10
53645;DHT22;39547;45.554;12.068;2022-10-31T21:59:57;15.20;85.10
53645;DHT22;39547;45.554;12.068;2022-10-31T22:06:04;15.20;85.20
53645;DHT22;39547;45.554;12.068;2022-10-31T22:12:06;15.10;85.30
53645;DHT22;39547;45.554;12.068;2022-10-31T22:18:09;15.00;85.30
53645;DHT22;39547;45.554;12.068;2022-10-31T22:24:11;15.00;85.40
53645;DHT22;39547;45.554;12.068;2022-10-31T22:30:12;14.90;85.40
53645;DHT22;39547;45.554;12.068;2022-10-31T22:36:16;14.90;85.50
53645;DHT22;39547;45.554;12.068;2022-10-31T22:42:18;14.80;85.50
53645;DHT22;39547;45.554;12.068;2022-10-31T22:48:20;14.80;85.60
53645;DHT22;39547;45.554;12.068;2022-10-31T22:54:22;14.70;85.60
53645;DHT22;39547;45.554;12.068;2022-10-31T23:00:23;14.60;85.60
53645;DHT22;39547;45.554;12.068;2022-10-31T23:06:26;14.60;85.70
53645;DHT22;39547;45.554;12.068;2022-10-31T23:12:28;14.60;85.80
53645;DHT22;39547;45.554;12.068;2022-10-31T23:18:49;14.50;85.80
53645;DHT22;39547;45.554;12.068;2022-10-31T23:24:50;14.60;85.90
53645;DHT22;39547;45.554;12.068;2022-10-31T23:30:51;14.50;85.90
53645;DHT22;39547;45.554;12.068;2022-10-31T23:36:53;14.50;85.90
53645;DHT22;39547;45.554;12.068;2022-10-31T23:42:54;14.50;86.00
53645;DHT22;39547;45.554;12.068;2022-10-31T23:48:56;14.60;86.00
53645;DHT22;39547;45.554;12.068;2022-10-31T23:54:57;14.60;86.00
